• Join FlightAware (Why Join?)
  • Login
  • US Flag 
01:09PM EDT


 

Airport Tracker/Info


-or-


 

Live Flight TrackerFlight Track Log ✈ N46265 ✈ 15-Sep-2013 ✈ X61 - KTPA

Flight Track Log - Related Links

Times and Time Zones

All times are in EDT time to prevent confusion due to time zone crossing. See the N46265 flight status page for this flight to view local times or setup timezone preferences in your user account.

Time Position Orientation Groundspeed Altitude Reporting Facility
EDT Latitude Longitude Course Direction KTS MPH feet Rate Location/Type
10:55AM 28.7833 -81.8167 228° Southwest 88 101 5,600  Level Orlando TRACON
10:56AM 28.7667 -81.8333 221° Southwest 92 106 5,600  Level Orlando TRACON
10:57AM 28.7500 -81.8500 221° Southwest 92 106 5,600  Level Orlando TRACON
10:58AM 28.7333 -81.8833 240° Southwest 93 107 5,600  Level Orlando TRACON
10:59AM 28.7000 -81.8833 180° South 90 104 5,700 60 Climbing Orlando TRACON
11:00AM 28.6227 -81.7644 228° Southwest  Level Estimated
11:01AM 28.6715 -81.9091 218° Southwest  Level Estimated
11:08AM 28.5220 -82.0441 218° Southwest  Level Estimated
11:09AM 28.5006 -82.0634 218° Southwest  Level Estimated
11:10AM 28.4792 -82.0826 218° Southwest  Level Estimated
11:11AM 28.4578 -82.1019 218° Southwest  Level Estimated
11:12AM 28.4364 -82.1211 218° Southwest  Level Estimated
11:13AM 28.4150 -82.1403 218° Southwest  Level Estimated
11:14AM 28.3937 -82.1596 218° Southwest  Level Estimated
11:15AM 28.3723 -82.1788 218° Southwest  Level Estimated
11:16AM 28.3509 -82.1980 218° Southwest  Level Estimated
11:17AM 28.3239 -82.2127 206° Southwest  Level FlightAware Approximate
11:18AM 28.2969 -82.2275 206° Southwest  Level FlightAware Approximate
11:19AM 28.2698 -82.2422 206° Southwest  Level FlightAware Approximate
11:20AM 28.2428 -82.2570 206° Southwest  Level FlightAware Approximate
11:21AM 28.2158 -82.2717 206° Southwest  Level FlightAware Approximate
11:22AM 28.1888 -82.2864 206° Southwest  Level FlightAware Approximate
11:23AM 28.1618 -82.3012 206° Southwest  Level FlightAware Approximate
11:24AM 28.1417 -82.3263 233° Southwest  Level Estimated
11:25AM 28.1189 -82.3484 221° Southwest  Level FlightAware Approximate
11:26AM 28.0991 -82.3739 221° Southwest  Level Estimated
11:27AM 28.0753 -82.3946 218° Southwest  Level FlightAware Approximate
11:28AM 28.0564 -82.4209 221° Southwest  Level Estimated
11:29AM 28.0312 -82.4393 213° Southwest  Level FlightAware Approximate
11:30AM 28.0145 -82.4675 230° Southwest  Level Estimated
11:31AM 27.9923 -82.4903 222° Southwest  Level FlightAware Approximate
11:32AM 27.9667 -82.5167 230° Southwest  Level FlightAware Approximate
11:33AM 27.9755 -82.5332 230° Southwest  Level Estimated
11:34AM 27.9755 -82.5332 230° Southwest  Level Estimated
11:35AM 27.9755 -82.5332 230° Southwest  Level Estimated
11:36AM 27.9755 -82.5332 230° Southwest  Level Estimated
11:37AM 27.9755 -82.5332 230° Southwest  Level Estimated
11:38AM 27.9755 -82.5332 230° Southwest  Level Estimated
11:39AM 27.9755 -82.5332 230° Southwest  Level Estimated
11:40AM 27.9755 -82.5332 230° Southwest  Level Estimated
11:41AM 27.9755 -82.5332 230° Southwest  Level Estimated